createdAt,value
2022-11-28T00:02:34.340Z,5.65
2022-11-28T00:05:10.519Z,6.63
2022-11-28T00:07:45.270Z,5.40
2022-11-28T00:10:24.564Z,6.95
2022-11-28T00:12:57.937Z,5.78
2022-11-28T00:15:36.238Z,6.45
2022-11-28T00:18:12.298Z,8.80
2022-11-28T00:20:45.917Z,6.82
2022-11-28T00:23:16.371Z,5.82
2022-11-28T00:25:47.066Z,9.05
2022-11-28T00:28:20.431Z,5.85
2022-11-28T00:30:58.554Z,6.25
2022-11-28T00:33:30.826Z,5.35
2022-11-28T00:36:00.785Z,7.55
2022-11-28T00:38:32.981Z,5.57
2022-11-28T00:41:07.530Z,7.82
2022-11-28T00:43:40.709Z,6.22
2022-11-28T00:46:12.852Z,6.00
2022-11-28T00:48:47.407Z,7.00
2022-11-28T00:51:27.945Z,8.93
2022-11-28T00:54:03.094Z,8.00
2022-11-28T00:56:45.549Z,6.10
2022-11-28T00:59:19.710Z,6.53
2022-11-28T01:01:55.412Z,6.57
2022-11-28T01:04:35.843Z,5.75
2022-11-28T01:07:14.558Z,5.47
2022-11-28T01:09:45.770Z,5.20
2022-11-28T01:12:33.606Z,5.85
2022-11-28T01:15:11.081Z,6.25
2022-11-28T01:17:45.076Z,7.55
2022-11-28T01:20:18.096Z,6.43
2022-11-28T01:22:47.154Z,6.32
2022-11-28T01:25:17.352Z,6.85
2022-11-28T01:27:53.628Z,7.57
2022-11-28T01:30:24.639Z,6.30
2022-11-28T01:32:59.060Z,8.50
2022-11-28T01:35:35.257Z,8.57
2022-11-28T01:38:05.599Z,6.55
2022-11-28T01:40:45.287Z,6.28
2022-11-28T01:43:16.181Z,8.15
2022-11-28T01:45:49.120Z,7.55
2022-11-28T01:48:25.211Z,7.18
2022-11-28T01:51:03.468Z,6.47
2022-11-28T01:53:40.462Z,6.85
2022-11-28T01:56:17.428Z,6.90
2022-11-28T01:58:55.083Z,6.07
2022-11-28T02:01:28.140Z,9.65
2022-11-28T02:04:03.167Z,7.97
2022-11-28T02:06:40.732Z,6.95
2022-11-28T02:09:12.972Z,6.18
2022-11-28T02:12:13.647Z,6.63
2022-11-28T02:15:05.235Z,7.32
2022-11-28T02:17:54.063Z,7.10
2022-11-28T02:21:05.622Z,7.00
2022-11-28T02:24:21.516Z,8.50
2022-11-28T02:27:10.549Z,8.70
2022-11-28T02:30:03.871Z,9.23
2022-11-28T02:35:21.216Z,6.95
2022-11-28T02:38:06.236Z,6.00
2022-11-28T02:40:41.615Z,6.15
2022-11-28T02:43:32.285Z,6.03
2022-11-28T02:46:16.974Z,6.10
2022-11-28T02:48:53.386Z,7.20
2022-11-28T02:51:35.788Z,8.40
2022-11-28T02:54:13.034Z,6.68
2022-11-28T02:56:48.389Z,6.60
2022-11-28T02:59:49.122Z,7.45
2022-11-28T03:02:29.369Z,7.18
2022-11-28T03:05:23.559Z,6.78
2022-11-28T03:08:03.013Z,8.70
2022-11-28T03:10:47.193Z,6.82
2022-11-28T03:13:30.734Z,6.55
2022-11-28T03:16:20.539Z,8.20
2022-11-28T03:19:01.753Z,6.10
2022-11-28T03:21:50.895Z,7.25
2022-11-28T03:24:31.867Z,7.50
2022-11-28T03:27:15.935Z,7.50
2022-11-28T03:29:51.077Z,8.48
2022-11-28T03:32:36.144Z,6.90
2022-11-28T03:35:22.661Z,6.80
2022-11-28T03:38:04.608Z,7.32
2022-11-28T03:40:44.456Z,7.32
2022-11-28T03:43:22.580Z,7.63
2022-11-28T03:45:55.650Z,6.30
2022-11-28T03:48:31.100Z,6.70
2022-11-28T03:51:05.346Z,7.63
2022-11-28T03:53:51.188Z,7.20
2022-11-28T03:56:30.164Z,8.77
2022-11-28T03:59:11.956Z,8.48
2022-11-28T04:01:54.511Z,8.13
2022-11-28T04:04:39.576Z,6.78
2022-11-28T04:07:26.149Z,6.38
2022-11-28T04:10:16.496Z,7.30
2022-11-28T04:12:59.262Z,7.15
2022-11-28T04:15:39.112Z,7.80
2022-11-28T04:18:17.918Z,6.20
2022-11-28T04:21:00.765Z,7.00
2022-11-28T04:23:36.212Z,8.45
2022-11-28T04:26:13.891Z,7.25
2022-11-28T04:28:46.741Z,6.60
2022-11-28T04:31:22.868Z,7.63
2022-11-28T04:33:59.249Z,6.10
2022-11-28T04:36:32.994Z,6.13
2022-11-28T04:39:04.318Z,6.30
2022-11-28T04:41:40.089Z,8.05
2022-11-28T04:44:18.417Z,7.45
2022-11-28T04:46:57.795Z,8.32
2022-11-28T04:49:32.404Z,6.57
2022-11-28T04:52:10.256Z,7.13
2022-11-28T04:54:59.206Z,7.45
2022-11-28T04:57:34.085Z,7.28
2022-11-28T05:00:22.901Z,7.50
2022-11-28T05:02:56.838Z,8.52
2022-11-28T05:05:40.415Z,7.93
2022-11-28T05:08:09.714Z,6.95
2022-11-28T05:10:44.776Z,7.50
2022-11-28T05:13:27.662Z,6.75
2022-11-28T05:16:08.951Z,6.65
2022-11-28T05:18:59.072Z,5.75
2022-11-28T05:21:34.312Z,7.85
2022-11-28T05:24:04.643Z,6.25
2022-11-28T05:26:45.359Z,7.88
2022-11-28T05:29:20.758Z,7.82
2022-11-28T05:31:55.286Z,6.38
2022-11-28T05:34:29.620Z,7.78
2022-11-28T05:37:01.234Z,7.47
2022-11-28T05:39:31.539Z,7.00
2022-11-28T05:42:17.076Z,7.03
2022-11-28T05:47:30.036Z,6.72
2022-11-28T05:50:06.473Z,8.07
2022-11-28T05:52:40.538Z,7.78
2022-11-28T05:55:12.176Z,5.93
2022-11-28T05:57:42.294Z,6.60
2022-11-28T06:00:17.976Z,8.27
2022-11-28T06:03:01.289Z,8.05
2022-11-28T06:05:46.232Z,8.52
2022-11-28T06:08:17.876Z,8.05
2022-11-28T06:11:04.797Z,5.97
2022-11-28T06:13:38.404Z,7.20
2022-11-28T06:16:11.369Z,6.95
2022-11-28T06:18:41.687Z,6.55
2022-11-28T06:21:23.777Z,5.82
2022-11-28T06:24:01.950Z,7.07
2022-11-28T06:26:33.799Z,6.43
2022-11-28T06:29:07.073Z,7.78
2022-11-28T06:31:45.898Z,7.78
2022-11-28T06:34:25.599Z,6.32
2022-11-28T06:37:05.076Z,6.47
2022-11-28T06:39:36.085Z,6.85
2022-11-28T06:42:11.050Z,9.20
2022-11-28T06:44:41.193Z,7.07
2022-11-28T06:47:15.586Z,7.60
2022-11-28T06:49:44.548Z,8.43
2022-11-28T06:52:13.630Z,6.47
2022-11-28T06:54:43.948Z,5.35
2022-11-28T06:57:13.835Z,6.25
2022-11-28T06:59:43.533Z,6.47
2022-11-28T07:02:19.893Z,7.53
2022-11-28T07:04:54.473Z,7.80
2022-11-28T07:07:23.957Z,6.85
2022-11-28T07:10:05.799Z,7.00
2022-11-28T07:12:41.526Z,6.43
2022-11-28T07:15:14.939Z,6.25
2022-11-28T07:17:47.079Z,6.88
2022-11-28T07:20:19.085Z,5.90
2022-11-28T07:22:52.795Z,7.68
2022-11-28T07:25:21.861Z,6.10
2022-11-28T07:27:53.980Z,6.45
2022-11-28T07:30:23.649Z,6.13
2022-11-28T07:32:56.764Z,6.65
2022-11-28T07:35:26.392Z,6.22
2022-11-28T07:37:55.043Z,6.95
2022-11-28T07:40:24.446Z,6.75
2022-11-28T07:42:53.161Z,9.27
2022-11-28T07:45:22.884Z,7.40
2022-11-28T07:47:58.254Z,7.80
2022-11-28T07:50:26.957Z,6.78
2022-11-28T07:53:04.151Z,6.43
2022-11-28T07:55:39.757Z,7.43
2022-11-28T07:58:09.117Z,7.60
2022-11-28T08:00:38.896Z,9.05
2022-11-28T08:03:10.174Z,7.53
2022-11-28T08:05:39.181Z,6.97
2022-11-28T08:08:08.884Z,7.40
2022-11-28T08:10:44.365Z,7.53
2022-11-28T08:13:16.270Z,8.45
2022-11-28T08:15:46.135Z,8.82
2022-11-28T08:18:16.714Z,7.03
2022-11-28T08:20:45.572Z,8.18
2022-11-28T08:23:14.862Z,6.80
2022-11-28T08:25:43.929Z,6.63
2022-11-28T08:28:16.471Z,6.72
2022-11-28T08:30:47.075Z,8.77
2022-11-28T08:33:19.013Z,7.97
2022-11-28T08:35:49.023Z,7.05
2022-11-28T08:38:23.777Z,6.70
2022-11-28T08:41:02.610Z,5.80
2022-11-28T08:43:35.242Z,7.50
2022-11-28T08:46:05.032Z,7.47
2022-11-28T08:48:38.017Z,6.70
2022-11-28T08:51:11.893Z,7.60
2022-11-28T08:53:43.989Z,7.00
2022-11-28T08:56:15.910Z,6.95
2022-11-28T08:58:49.063Z,6.35
2022-11-28T09:01:21.369Z,6.75
2022-11-28T09:03:56.330Z,7.00
2022-11-28T09:06:28.949Z,6.72
2022-11-28T09:09:01.973Z,6.00
2022-11-28T09:11:31.439Z,6.22
2022-11-28T09:14:01.195Z,7.32
2022-11-28T09:16:29.707Z,5.75
2022-11-28T09:19:01.877Z,6.93
2022-11-28T09:21:36.129Z,6.93
2022-11-28T09:24:07.122Z,7.57
2022-11-28T09:26:36.868Z,7.47
2022-11-28T09:29:11.869Z,6.70
2022-11-28T09:31:52.430Z,6.70
2022-11-28T09:34:31.328Z,6.88
2022-11-28T09:37:05.148Z,5.97
2022-11-28T09:40:04.814Z,6.82
2022-11-28T09:42:42.083Z,6.57
2022-11-28T09:45:29.989Z,6.75
2022-11-28T09:48:22.668Z,7.00
2022-11-28T09:51:11.543Z,6.63
2022-11-28T09:53:47.430Z,6.32
2022-11-28T09:56:23.121Z,7.00
2022-11-28T09:59:05.382Z,7.68
2022-11-28T10:01:58.685Z,7.78
2022-11-28T10:04:48.007Z,7.57
2022-11-28T10:07:33.595Z,6.63
2022-11-28T10:10:29.107Z,6.93
2022-11-28T10:13:17.260Z,7.07
2022-11-28T10:16:02.653Z,5.88
2022-11-28T10:18:45.260Z,6.88
2022-11-28T10:21:34.876Z,6.38
2022-11-28T10:24:15.406Z,5.75
2022-11-28T10:26:52.341Z,7.53
2022-11-28T10:29:30.300Z,6.93
2022-11-28T10:32:07.411Z,7.68
2022-11-28T10:34:48.643Z,6.50
2022-11-28T10:37:27.437Z,6.57
2022-11-28T10:40:14.471Z,6.75
2022-11-28T10:42:55.930Z,7.03
2022-11-28T10:45:38.962Z,5.97
2022-11-28T10:48:38.952Z,5.65
2022-11-28T10:51:21.585Z,6.88
2022-11-28T10:54:04.954Z,6.10
2022-11-28T10:56:44.279Z,6.63
2022-11-28T10:59:26.932Z,7.15
2022-11-28T11:02:03.813Z,5.72
2022-11-28T11:04:43.333Z,5.93
2022-11-28T11:07:21.794Z,6.28
2022-11-28T11:09:54.577Z,6.75
2022-11-28T11:12:33.772Z,7.55
2022-11-28T11:15:19.264Z,7.88
2022-11-28T11:17:52.652Z,6.75
2022-11-28T11:20:35.011Z,6.82
2022-11-28T11:23:19.256Z,7.63
2022-11-28T11:26:02.969Z,8.07
2022-11-28T11:28:52.703Z,6.57
2022-11-28T11:31:33.531Z,6.90
2022-11-28T11:34:06.985Z,6.90
2022-11-28T11:36:43.361Z,6.78
2022-11-28T11:39:25.658Z,7.00
2022-11-28T11:42:12.784Z,6.43
2022-11-28T11:44:48.137Z,6.00
2022-11-28T11:47:45.615Z,7.15
2022-11-28T11:50:23.205Z,7.97
2022-11-28T11:53:08.159Z,7.68
2022-11-28T11:55:49.833Z,8.25
2022-11-28T11:58:26.282Z,7.95
2022-11-28T12:01:06.033Z,6.80
2022-11-28T12:03:50.597Z,8.63
2022-11-28T12:06:34.452Z,8.93
2022-11-28T12:09:17.395Z,7.03
2022-11-28T12:11:53.597Z,7.32
2022-11-28T12:14:35.403Z,7.03
2022-11-28T12:20:52.332Z,6.35
2022-11-28T12:23:54.523Z,6.93
2022-11-28T12:26:52.379Z,7.93
2022-11-28T12:29:45.283Z,6.28
2022-11-28T12:32:44.056Z,5.93
2022-11-28T12:35:33.404Z,6.97
2022-11-28T12:38:15.808Z,7.07
2022-11-28T12:41:03.663Z,7.95
2022-11-28T12:43:44.116Z,6.80
2022-11-28T12:46:28.987Z,7.65
2022-11-28T12:49:18.040Z,6.93
2022-11-28T12:52:05.754Z,6.43
2022-11-28T12:54:57.860Z,6.22
2022-11-28T12:57:35.186Z,6.10
2022-11-28T13:00:24.148Z,7.60
2022-11-28T13:03:15.275Z,6.10
2022-11-28T13:06:00.288Z,6.05
2022-11-28T13:08:59.915Z,6.65
2022-11-28T13:11:49.899Z,5.38
2022-11-28T13:14:36.390Z,6.43
2022-11-28T13:17:21.777Z,7.88
2022-11-28T13:20:03.762Z,5.90
2022-11-28T13:22:50.273Z,5.97
2022-11-28T13:25:33.476Z,6.03
2022-11-28T13:28:26.453Z,7.30
2022-11-28T13:31:07.454Z,5.57
2022-11-28T13:33:54.475Z,5.35
2022-11-28T13:39:38.725Z,5.53
2022-11-28T13:42:59.521Z,5.43
2022-11-28T13:45:32.254Z,5.88
2022-11-28T13:51:34.100Z,5.20
2022-11-28T13:54:42.522Z,5.43
2022-11-28T13:57:34.530Z,4.85
2022-11-28T14:00:27.749Z,5.80
2022-11-28T14:03:02.398Z,4.65
2022-11-28T14:05:39.157Z,4.88
2022-11-28T14:08:31.539Z,5.57
2022-11-28T14:11:32.644Z,5.07
2022-11-28T14:14:32.035Z,4.00
2022-11-28T14:17:37.231Z,4.80
2022-11-28T14:20:22.534Z,4.25
2022-11-28T14:23:10.257Z,4.47
2022-11-28T14:25:54.097Z,4.47
2022-11-28T14:28:40.814Z,4.50
2022-11-28T14:31:33.735Z,5.07
2022-11-28T14:34:46.240Z,4.80
2022-11-28T14:37:57.772Z,4.63
2022-11-28T14:41:06.831Z,6.15
2022-11-28T14:43:40.521Z,4.80
2022-11-28T14:46:40.832Z,5.05
2022-11-28T14:49:29.574Z,4.32
2022-11-28T14:52:38.990Z,5.15
2022-11-28T14:55:33.357Z,5.22
2022-11-28T14:58:18.012Z,6.38
2022-11-28T15:03:43.787Z,5.10
2022-11-28T15:06:31.968Z,5.03
2022-11-28T15:09:23.835Z,5.45
2022-11-28T15:12:11.968Z,5.15
2022-11-28T15:15:03.307Z,5.20
2022-11-28T15:17:39.064Z,5.57
2022-11-28T15:20:22.047Z,5.43
2022-11-28T15:22:59.437Z,5.97
2022-11-28T15:25:42.768Z,6.70
2022-11-28T15:28:28.836Z,5.90
2022-11-28T15:31:05.515Z,6.40
2022-11-28T15:33:49.407Z,5.22
2022-11-28T15:36:38.075Z,5.95
2022-11-28T15:39:30.874Z,6.18
2022-11-28T15:42:26.453Z,6.05
2022-11-28T15:45:06.398Z,5.13
2022-11-28T15:47:35.816Z,5.43
2022-11-28T15:50:16.023Z,7.28
2022-11-28T15:52:54.555Z,5.80
2022-11-28T15:55:24.569Z,6.47
2022-11-28T15:57:53.787Z,5.43
2022-11-28T16:00:35.049Z,6.15
2022-11-28T16:03:10.202Z,7.18
2022-11-28T16:05:40.512Z,5.60
2022-11-28T16:08:32.851Z,7.50
2022-11-28T16:11:17.460Z,8.00
2022-11-28T16:14:04.416Z,6.60
2022-11-28T16:16:59.662Z,6.70
2022-11-28T16:19:39.724Z,6.57
2022-11-28T16:22:24.014Z,6.45
2022-11-28T16:25:13.843Z,7.63
2022-11-28T16:27:57.421Z,6.90
2022-11-28T16:31:00.469Z,7.05
2022-11-28T16:33:44.363Z,7.68
2022-11-28T16:36:24.330Z,6.90
2022-11-28T16:39:09.351Z,6.25
2022-11-28T16:41:40.718Z,6.68
2022-11-28T16:44:22.979Z,6.33
2022-11-28T16:46:58.696Z,8.23
2022-11-28T16:50:01.625Z,6.57
2022-11-28T16:55:59.521Z,7.65
2022-11-28T16:58:32.271Z,5.60
2022-11-28T17:01:14.543Z,7.07
2022-11-28T17:03:58.075Z,7.97
2022-11-28T17:06:41.557Z,7.72
2022-11-28T17:09:34.355Z,6.70
2022-11-28T17:12:24.204Z,7.18
2022-11-28T17:15:04.340Z,6.40
2022-11-28T17:17:41.917Z,8.10
2022-11-28T17:20:18.077Z,7.20
2022-11-28T17:22:57.090Z,7.47
2022-11-28T17:25:30.908Z,7.40
2022-11-28T17:28:06.743Z,7.15
2022-11-28T17:30:56.359Z,7.57
2022-11-28T17:33:43.234Z,10.30
2022-11-28T17:36:25.278Z,6.93
2022-11-28T17:39:08.865Z,6.53
2022-11-28T17:41:57.213Z,9.88
2022-11-28T17:44:50.019Z,11.60
2022-11-28T17:47:29.358Z,8.35
2022-11-28T17:50:10.265Z,8.20
2022-11-28T17:52:48.681Z,9.90
2022-11-28T17:55:27.757Z,8.55
2022-11-28T17:58:04.245Z,9.15
2022-11-28T18:00:34.807Z,11.27
2022-11-28T18:03:06.673Z,9.07
2022-11-28T18:05:42.579Z,9.52
2022-11-28T18:08:27.376Z,9.70
2022-11-28T18:11:13.034Z,8.80
2022-11-28T18:13:52.658Z,12.98
2022-11-28T18:16:29.877Z,11.82
2022-11-28T18:19:08.282Z,11.02
2022-11-28T18:21:39.986Z,12.85
2022-11-28T18:24:13.705Z,10.43
2022-11-28T18:26:54.093Z,12.50
2022-11-28T18:29:28.513Z,11.55
2022-11-28T18:32:04.561Z,15.00
2022-11-28T18:34:40.470Z,14.07
2022-11-28T18:37:20.288Z,15.40
2022-11-28T18:39:58.072Z,14.63
2022-11-28T18:42:35.575Z,12.90
2022-11-28T18:45:12.196Z,15.93
2022-11-28T18:47:46.041Z,12.32
2022-11-28T18:50:26.200Z,13.52
2022-11-28T18:53:00.085Z,12.75
2022-11-28T18:55:35.473Z,11.40
2022-11-28T18:58:11.187Z,11.20
2022-11-28T19:00:48.254Z,13.45
2022-11-28T19:03:22.692Z,11.88
2022-11-28T19:05:56.479Z,9.50
2022-11-28T19:08:28.922Z,11.77
2022-11-28T19:11:09.228Z,10.27
2022-11-28T19:13:47.955Z,10.30
2022-11-28T19:16:28.822Z,13.32
2022-11-28T19:19:07.081Z,13.05
2022-11-28T19:21:51.993Z,11.18
2022-11-28T19:24:24.802Z,12.13
2022-11-28T19:27:00.088Z,9.10
2022-11-28T19:29:38.249Z,10.75
2022-11-28T19:32:10.762Z,10.68
2022-11-28T19:34:43.273Z,9.57
2022-11-28T19:37:19.416Z,9.52
2022-11-28T19:40:02.180Z,10.07
2022-11-28T19:42:41.534Z,9.75
2022-11-28T19:45:19.558Z,14.15
2022-11-28T19:47:52.590Z,12.60
2022-11-28T19:50:31.527Z,12.07
2022-11-28T19:53:04.244Z,11.38
2022-11-28T19:55:40.419Z,11.48
2022-11-28T19:58:24.091Z,10.32
2022-11-28T20:01:08.298Z,11.20
2022-11-28T20:03:45.469Z,11.05
2022-11-28T20:06:18.344Z,10.40
2022-11-28T20:08:51.168Z,10.90
2022-11-28T20:11:31.750Z,9.32
2022-11-28T20:14:09.185Z,9.18
2022-11-28T20:16:48.221Z,8.90
2022-11-28T20:19:23.919Z,8.55
2022-11-28T20:21:59.671Z,12.95
2022-11-28T20:24:37.182Z,11.25
2022-11-28T20:27:08.927Z,13.75
2022-11-28T20:29:45.927Z,11.82
2022-11-28T20:32:19.204Z,8.88
2022-11-28T20:34:51.203Z,8.70
2022-11-28T20:37:25.886Z,12.40
2022-11-28T20:39:58.107Z,10.55
2022-11-28T20:42:27.359Z,11.75
2022-11-28T20:44:59.512Z,14.48
2022-11-28T20:47:35.228Z,11.48
2022-11-28T20:50:06.255Z,8.85
2022-11-28T20:52:40.548Z,12.95
2022-11-28T20:55:14.634Z,11.57
2022-11-28T20:57:52.554Z,12.27
2022-11-28T21:00:26.710Z,12.43
2022-11-28T21:03:00.879Z,12.52
2022-11-28T21:05:31.373Z,9.57
2022-11-28T21:08:04.232Z,10.25
2022-11-28T21:10:37.826Z,9.40
2022-11-28T21:13:14.977Z,10.65
2022-11-28T21:15:51.091Z,10.65
2022-11-28T21:18:23.232Z,9.18
2022-11-28T21:21:00.967Z,7.63
2022-11-28T21:23:39.502Z,7.95
2022-11-28T21:26:15.593Z,9.38
2022-11-28T21:28:49.420Z,10.15
2022-11-28T21:31:26.265Z,8.40
2022-11-28T21:34:06.901Z,11.70
2022-11-28T21:36:39.923Z,8.90
2022-11-28T21:39:19.330Z,10.45
2022-11-28T21:41:57.383Z,8.82
2022-11-28T21:44:34.212Z,8.77
2022-11-28T21:47:09.406Z,8.45
2022-11-28T21:49:45.475Z,9.45
2022-11-28T21:52:20.679Z,8.38
2022-11-28T21:54:53.947Z,9.52
2022-11-28T21:57:29.059Z,9.75
2022-11-28T22:00:05.315Z,8.43
2022-11-28T22:02:51.396Z,9.23
2022-11-28T22:05:28.397Z,9.75
2022-11-28T22:08:01.585Z,8.23
2022-11-28T22:10:41.048Z,7.43
2022-11-28T22:13:17.973Z,8.57
2022-11-28T22:15:53.332Z,7.70
2022-11-28T22:18:32.723Z,8.20
2022-11-28T22:21:49.937Z,8.93
2022-11-28T22:24:10.115Z,9.73
2022-11-28T22:26:45.792Z,9.30
2022-11-28T22:29:25.044Z,7.85
2022-11-28T22:32:00.045Z,8.30
2022-11-28T22:34:42.148Z,8.18
2022-11-28T22:37:18.282Z,8.77
2022-11-28T22:39:54.915Z,8.18
2022-11-28T22:42:29.998Z,9.65
2022-11-28T22:45:06.789Z,9.05
2022-11-28T22:47:38.956Z,9.68
2022-11-28T22:50:14.765Z,10.55
2022-11-28T22:52:52.841Z,8.48
2022-11-28T22:55:26.635Z,9.02
2022-11-28T22:58:02.690Z,8.55
2022-11-28T23:00:45.661Z,8.63
2022-11-28T23:03:28.712Z,8.20
2022-11-28T23:06:11.158Z,7.53
2022-11-28T23:08:49.551Z,9.43
2022-11-28T23:11:26.645Z,9.40
2022-11-28T23:14:04.844Z,10.82
2022-11-28T23:16:41.862Z,12.20
2022-11-28T23:19:18.262Z,10.32
2022-11-28T23:21:53.107Z,11.25
2022-11-28T23:24:34.105Z,10.13
2022-11-28T23:27:06.445Z,10.75
2022-11-28T23:29:46.797Z,10.38
2022-11-28T23:32:23.197Z,9.65
2022-11-28T23:34:56.764Z,8.82
2022-11-28T23:37:27.695Z,9.52
2022-11-28T23:40:03.335Z,9.52
2022-11-28T23:42:35.642Z,10.80
2022-11-28T23:45:12.811Z,9.90
2022-11-28T23:47:43.442Z,9.68
2022-11-28T23:50:23.413Z,9.05
2022-11-28T23:52:57.775Z,10.77
2022-11-28T23:55:27.727Z,10.10
2022-11-28T23:57:57.279Z,8.77
